sensor_id;sensor_type;location;lat;lon;timestamp;P1;durP1;ratioP1;P2;durP2;ratioP2
4232;SDS011;2130;48.472;11.934;2023-10-09T00:00:14;4.00;;;1.67;;
4232;SDS011;2130;48.472;11.934;2023-10-09T00:03:08;3.80;;;1.60;;
4232;SDS011;2130;48.472;11.934;2023-10-09T00:05:37;6.00;;;2.60;;
4232;SDS011;2130;48.472;11.934;2023-10-09T00:08:13;4.53;;;2.00;;
4232;SDS011;2130;48.472;11.934;2023-10-09T00:10:46;5.97;;;2.40;;
4232;SDS011;2130;48.472;11.934;2023-10-09T00:13:20;4.90;;;1.93;;
4232;SDS011;2130;48.472;11.934;2023-10-09T00:15:56;4.30;;;2.10;;
4232;SDS011;2130;48.472;11.934;2023-10-09T00:18:28;5.90;;;2.20;;
4232;SDS011;2130;48.472;11.934;2023-10-09T00:20:57;7.73;;;2.00;;
4232;SDS011;2130;48.472;11.934;2023-10-09T00:23:39;6.50;;;1.87;;
4232;SDS011;2130;48.472;11.934;2023-10-09T00:26:08;6.50;;;2.47;;
4232;SDS011;2130;48.472;11.934;2023-10-09T00:28:47;6.00;;;2.50;;
4232;SDS011;2130;48.472;11.934;2023-10-09T00:31:19;6.20;;;1.77;;
4232;SDS011;2130;48.472;11.934;2023-10-09T00:33:57;4.33;;;1.83;;
4232;SDS011;2130;48.472;11.934;2023-10-09T00:36:34;7.40;;;2.53;;
4232;SDS011;2130;48.472;11.934;2023-10-09T00:39:18;4.27;;;2.00;;
4232;SDS011;2130;48.472;11.934;2023-10-09T00:42:07;4.33;;;1.90;;
4232;SDS011;2130;48.472;11.934;2023-10-09T00:44:39;7.67;;;2.07;;
4232;SDS011;2130;48.472;11.934;2023-10-09T00:47:10;5.70;;;2.03;;
4232;SDS011;2130;48.472;11.934;2023-10-09T00:49:51;4.77;;;2.10;;
4232;SDS011;2130;48.472;11.934;2023-10-09T00:52:26;4.47;;;2.03;;
4232;SDS011;2130;48.472;11.934;2023-10-09T00:54:58;5.63;;;2.17;;
4232;SDS011;2130;48.472;11.934;2023-10-09T00:57:35;4.57;;;1.70;;
4232;SDS011;2130;48.472;11.934;2023-10-09T01:00:07;3.57;;;1.60;;
4232;SDS011;2130;48.472;11.934;2023-10-09T01:02:52;5.80;;;2.13;;
4232;SDS011;2130;48.472;11.934;2023-10-09T01:05:40;4.90;;;2.27;;
4232;SDS011;2130;48.472;11.934;2023-10-09T01:08:18;7.10;;;2.00;;
4232;SDS011;2130;48.472;11.934;2023-10-09T01:10:53;6.60;;;2.00;;
4232;SDS011;2130;48.472;11.934;2023-10-09T01:13:23;5.50;;;2.10;;
4232;SDS011;2130;48.472;11.934;2023-10-09T01:16:06;8.20;;;1.83;;
4232;SDS011;2130;48.472;11.934;2023-10-09T01:18:41;5.17;;;2.10;;
4232;SDS011;2130;48.472;11.934;2023-10-09T01:21:10;4.10;;;1.90;;
4232;SDS011;2130;48.472;11.934;2023-10-09T01:23:43;6.80;;;2.07;;
4232;SDS011;2130;48.472;11.934;2023-10-09T01:26:30;7.73;;;2.60;;
4232;SDS011;2130;48.472;11.934;2023-10-09T01:29:01;6.30;;;2.70;;
4232;SDS011;2130;48.472;11.934;2023-10-09T01:31:30;5.13;;;2.03;;
4232;SDS011;2130;48.472;11.934;2023-10-09T01:34:04;5.93;;;2.23;;
4232;SDS011;2130;48.472;11.934;2023-10-09T01:36:36;5.40;;;2.00;;
4232;SDS011;2130;48.472;11.934;2023-10-09T01:39:08;5.23;;;2.10;;
4232;SDS011;2130;48.472;11.934;2023-10-09T01:41:49;4.57;;;2.00;;
4232;SDS011;2130;48.472;11.934;2023-10-09T01:44:27;4.40;;;1.60;;
4232;SDS011;2130;48.472;11.934;2023-10-09T01:47:01;7.33;;;2.60;;
4232;SDS011;2130;48.472;11.934;2023-10-09T01:49:34;4.70;;;2.50;;
4232;SDS011;2130;48.472;11.934;2023-10-09T01:52:08;5.03;;;2.30;;
4232;SDS011;2130;48.472;11.934;2023-10-09T01:54:38;7.03;;;2.70;;
4232;SDS011;2130;48.472;11.934;2023-10-09T01:57:08;7.00;;;2.53;;
4232;SDS011;2130;48.472;11.934;2023-10-09T01:59:40;5.43;;;2.00;;
4232;SDS011;2130;48.472;11.934;2023-10-09T02:02:11;4.27;;;2.07;;
4232;SDS011;2130;48.472;11.934;2023-10-09T02:04:53;4.30;;;1.90;;
4232;SDS011;2130;48.472;11.934;2023-10-09T02:07:34;4.30;;;1.80;;
4232;SDS011;2130;48.472;11.934;2023-10-09T02:10:10;5.20;;;1.93;;
4232;SDS011;2130;48.472;11.934;2023-10-09T02:12:48;4.70;;;2.00;;
4232;SDS011;2130;48.472;11.934;2023-10-09T02:15:20;7.07;;;2.10;;
4232;SDS011;2130;48.472;11.934;2023-10-09T02:18:08;6.73;;;1.90;;
4232;SDS011;2130;48.472;11.934;2023-10-09T02:20:46;4.00;;;1.80;;
4232;SDS011;2130;48.472;11.934;2023-10-09T02:23:22;7.13;;;2.20;;
4232;SDS011;2130;48.472;11.934;2023-10-09T02:25:58;3.80;;;1.70;;
4232;SDS011;2130;48.472;11.934;2023-10-09T02:28:31;6.73;;;1.90;;
4232;SDS011;2130;48.472;11.934;2023-10-09T02:31:02;4.67;;;2.00;;
4232;SDS011;2130;48.472;11.934;2023-10-09T02:33:37;4.27;;;1.60;;
4232;SDS011;2130;48.472;11.934;2023-10-09T02:36:08;4.30;;;1.87;;
4232;SDS011;2130;48.472;11.934;2023-10-09T02:38:36;4.00;;;1.57;;
4232;SDS011;2130;48.472;11.934;2023-10-09T02:41:09;4.40;;;1.73;;
4232;SDS011;2130;48.472;11.934;2023-10-09T02:43:50;6.50;;;1.90;;
4232;SDS011;2130;48.472;11.934;2023-10-09T02:46:21;5.53;;;1.83;;
4232;SDS011;2130;48.472;11.934;2023-10-09T02:48:57;10.33;;;2.00;;
4232;SDS011;2130;48.472;11.934;2023-10-09T02:51:26;6.17;;;2.00;;
4232;SDS011;2130;48.472;11.934;2023-10-09T02:54:08;4.20;;;1.93;;
4232;SDS011;2130;48.472;11.934;2023-10-09T02:56:47;4.10;;;1.70;;
4232;SDS011;2130;48.472;11.934;2023-10-09T02:59:23;4.00;;;1.70;;
4232;SDS011;2130;48.472;11.934;2023-10-09T03:01:52;3.60;;;1.50;;
4232;SDS011;2130;48.472;11.934;2023-10-09T03:04:20;4.67;;;1.73;;
4232;SDS011;2130;48.472;11.934;2023-10-09T03:06:51;4.33;;;1.53;;
4232;SDS011;2130;48.472;11.934;2023-10-09T03:09:20;7.00;;;1.70;;
4232;SDS011;2130;48.472;11.934;2023-10-09T03:11:57;7.23;;;2.33;;
4232;SDS011;2130;48.472;11.934;2023-10-09T03:14:30;5.23;;;2.17;;
4232;SDS011;2130;48.472;11.934;2023-10-09T03:16:58;4.57;;;1.70;;
4232;SDS011;2130;48.472;11.934;2023-10-09T03:19:27;6.83;;;2.27;;
4232;SDS011;2130;48.472;11.934;2023-10-09T03:21:56;5.67;;;1.87;;
4232;SDS011;2130;48.472;11.934;2023-10-09T03:24:25;5.13;;;1.87;;
4232;SDS011;2130;48.472;11.934;2023-10-09T03:26:54;5.20;;;1.93;;
4232;SDS011;2130;48.472;11.934;2023-10-09T03:29:24;4.07;;;1.70;;
4232;SDS011;2130;48.472;11.934;2023-10-09T03:31:57;5.80;;;2.20;;
4232;SDS011;2130;48.472;11.934;2023-10-09T03:34:27;5.00;;;1.97;;
4232;SDS011;2130;48.472;11.934;2023-10-09T03:36:57;8.93;;;1.80;;
4232;SDS011;2130;48.472;11.934;2023-10-09T03:39:35;5.47;;;1.80;;
4232;SDS011;2130;48.472;11.934;2023-10-09T03:42:08;6.70;;;1.90;;
4232;SDS011;2130;48.472;11.934;2023-10-09T03:44:46;6.40;;;1.70;;
4232;SDS011;2130;48.472;11.934;2023-10-09T03:47:19;5.00;;;1.83;;
4232;SDS011;2130;48.472;11.934;2023-10-09T03:49:49;4.17;;;1.47;;
4232;SDS011;2130;48.472;11.934;2023-10-09T03:52:21;4.70;;;1.90;;
4232;SDS011;2130;48.472;11.934;2023-10-09T03:54:53;4.70;;;2.00;;
4232;SDS011;2130;48.472;11.934;2023-10-09T03:57:23;3.87;;;1.60;;
4232;SDS011;2130;48.472;11.934;2023-10-09T03:59:51;4.17;;;1.67;;
4232;SDS011;2130;48.472;11.934;2023-10-09T04:02:22;5.37;;;2.00;;
4232;SDS011;2130;48.472;11.934;2023-10-09T04:04:51;5.20;;;1.97;;
4232;SDS011;2130;48.472;11.934;2023-10-09T04:07:19;4.80;;;1.80;;
4232;SDS011;2130;48.472;11.934;2023-10-09T04:09:48;4.40;;;1.77;;
4232;SDS011;2130;48.472;11.934;2023-10-09T04:12:30;6.03;;;2.17;;
4232;SDS011;2130;48.472;11.934;2023-10-09T04:15:00;5.63;;;2.03;;
4232;SDS011;2130;48.472;11.934;2023-10-09T04:17:31;6.67;;;1.80;;
4232;SDS011;2130;48.472;11.934;2023-10-09T04:20:02;4.73;;;1.83;;
4232;SDS011;2130;48.472;11.934;2023-10-09T04:22:49;9.97;;;2.13;;
4232;SDS011;2130;48.472;11.934;2023-10-09T04:25:27;5.23;;;1.93;;
4232;SDS011;2130;48.472;11.934;2023-10-09T04:27:58;5.10;;;1.70;;
4232;SDS011;2130;48.472;11.934;2023-10-09T04:30:37;5.80;;;2.20;;
4232;SDS011;2130;48.472;11.934;2023-10-09T04:33:10;3.70;;;1.60;;
4232;SDS011;2130;48.472;11.934;2023-10-09T04:35:55;5.60;;;2.20;;
4232;SDS011;2130;48.472;11.934;2023-10-09T04:38:41;4.90;;;1.80;;
4232;SDS011;2130;48.472;11.934;2023-10-09T04:41:22;3.90;;;1.70;;
4232;SDS011;2130;48.472;11.934;2023-10-09T04:44:01;5.23;;;1.93;;
4232;SDS011;2130;48.472;11.934;2023-10-09T04:46:47;6.33;;;1.70;;
4232;SDS011;2130;48.472;11.934;2023-10-09T04:49:30;4.73;;;1.40;;
4232;SDS011;2130;48.472;11.934;2023-10-09T04:52:12;6.10;;;1.73;;
4232;SDS011;2130;48.472;11.934;2023-10-09T04:54:46;6.63;;;2.33;;
4232;SDS011;2130;48.472;11.934;2023-10-09T04:57:29;5.20;;;1.90;;
4232;SDS011;2130;48.472;11.934;2023-10-09T05:00:07;8.70;;;2.10;;
4232;SDS011;2130;48.472;11.934;2023-10-09T05:02:49;6.50;;;2.30;;
4232;SDS011;2130;48.472;11.934;2023-10-09T05:05:22;5.23;;;1.70;;
4232;SDS011;2130;48.472;11.934;2023-10-09T05:08:05;4.70;;;1.63;;
4232;SDS011;2130;48.472;11.934;2023-10-09T05:10:46;13.87;;;2.30;;
4232;SDS011;2130;48.472;11.934;2023-10-09T05:13:41;4.27;;;1.90;;
4232;SDS011;2130;48.472;11.934;2023-10-09T05:16:26;5.60;;;2.20;;
4232;SDS011;2130;48.472;11.934;2023-10-09T05:18:54;4.87;;;2.03;;
4232;SDS011;2130;48.472;11.934;2023-10-09T05:21:28;5.47;;;1.83;;
4232;SDS011;2130;48.472;11.934;2023-10-09T05:24:11;5.57;;;2.20;;
4232;SDS011;2130;48.472;11.934;2023-10-09T05:26:50;7.20;;;2.20;;
4232;SDS011;2130;48.472;11.934;2023-10-09T05:29:39;5.63;;;2.10;;
4232;SDS011;2130;48.472;11.934;2023-10-09T05:32:27;4.33;;;1.70;;
4232;SDS011;2130;48.472;11.934;2023-10-09T05:34:56;6.30;;;1.70;;
4232;SDS011;2130;48.472;11.934;2023-10-09T05:37:42;4.27;;;1.90;;
4232;SDS011;2130;48.472;11.934;2023-10-09T05:40:10;5.17;;;1.77;;
4232;SDS011;2130;48.472;11.934;2023-10-09T05:42:57;4.60;;;2.00;;
4232;SDS011;2130;48.472;11.934;2023-10-09T05:45:26;4.90;;;1.53;;
4232;SDS011;2130;48.472;11.934;2023-10-09T05:48:13;4.73;;;1.83;;
4232;SDS011;2130;48.472;11.934;2023-10-09T05:51:01;3.97;;;1.60;;
4232;SDS011;2130;48.472;11.934;2023-10-09T05:53:46;4.13;;;1.60;;
4232;SDS011;2130;48.472;11.934;2023-10-09T05:56:38;4.13;;;1.57;;
4232;SDS011;2130;48.472;11.934;2023-10-09T05:59:24;4.60;;;1.80;;
4232;SDS011;2130;48.472;11.934;2023-10-09T06:02:10;5.10;;;1.80;;
4232;SDS011;2130;48.472;11.934;2023-10-09T06:04:57;4.17;;;1.47;;
4232;SDS011;2130;48.472;11.934;2023-10-09T06:07:31;10.17;;;2.10;;
4232;SDS011;2130;48.472;11.934;2023-10-09T06:10:28;6.83;;;2.10;;
4232;SDS011;2130;48.472;11.934;2023-10-09T06:13:06;7.03;;;2.10;;
4232;SDS011;2130;48.472;11.934;2023-10-09T06:15:56;3.70;;;1.30;;
4232;SDS011;2130;48.472;11.934;2023-10-09T06:18:42;4.03;;;1.20;;
4232;SDS011;2130;48.472;11.934;2023-10-09T06:21:25;5.40;;;2.00;;
4232;SDS011;2130;48.472;11.934;2023-10-09T06:24:12;4.30;;;1.50;;
4232;SDS011;2130;48.472;11.934;2023-10-09T06:26:45;4.60;;;1.70;;
4232;SDS011;2130;48.472;11.934;2023-10-09T06:29:39;5.40;;;1.57;;
4232;SDS011;2130;48.472;11.934;2023-10-09T06:32:18;4.93;;;1.93;;
4232;SDS011;2130;48.472;11.934;2023-10-09T06:35:01;5.70;;;1.90;;
4232;SDS011;2130;48.472;11.934;2023-10-09T06:37:50;6.10;;;1.90;;
4232;SDS011;2130;48.472;11.934;2023-10-09T06:40:39;4.40;;;1.50;;
4232;SDS011;2130;48.472;11.934;2023-10-09T06:43:25;9.90;;;1.63;;
4232;SDS011;2130;48.472;11.934;2023-10-09T06:45:56;5.30;;;2.10;;
4232;SDS011;2130;48.472;11.934;2023-10-09T06:48:42;10.40;;;1.80;;
4232;SDS011;2130;48.472;11.934;2023-10-09T06:51:23;4.70;;;1.67;;
4232;SDS011;2130;48.472;11.934;2023-10-09T06:54:10;6.10;;;2.00;;
4232;SDS011;2130;48.472;11.934;2023-10-09T06:56:42;3.90;;;1.60;;
4232;SDS011;2130;48.472;11.934;2023-10-09T06:59:40;3.83;;;1.60;;
4232;SDS011;2130;48.472;11.934;2023-10-09T07:02:33;5.67;;;1.63;;
4232;SDS011;2130;48.472;11.934;2023-10-09T07:05:13;5.90;;;2.30;;
4232;SDS011;2130;48.472;11.934;2023-10-09T07:07:44;4.97;;;1.20;;
4232;SDS011;2130;48.472;11.934;2023-10-09T07:10:24;4.77;;;1.70;;
4232;SDS011;2130;48.472;11.934;2023-10-09T07:13:00;8.00;;;1.60;;
4232;SDS011;2130;48.472;11.934;2023-10-09T07:15:30;5.23;;;1.80;;
4232;SDS011;2130;48.472;11.934;2023-10-09T07:18:21;11.73;;;2.20;;
4232;SDS011;2130;48.472;11.934;2023-10-09T07:21:08;7.60;;;2.33;;
4232;SDS011;2130;48.472;11.934;2023-10-09T07:23:44;4.73;;;1.60;;
4232;SDS011;2130;48.472;11.934;2023-10-09T07:26:17;3.57;;;1.70;;
4232;SDS011;2130;48.472;11.934;2023-10-09T07:28:50;3.80;;;1.57;;
4232;SDS011;2130;48.472;11.934;2023-10-09T07:31:28;3.77;;;1.40;;
4232;SDS011;2130;48.472;11.934;2023-10-09T07:34:06;3.40;;;1.47;;
4232;SDS011;2130;48.472;11.934;2023-10-09T07:36:48;3.20;;;1.50;;
4232;SDS011;2130;48.472;11.934;2023-10-09T07:39:23;6.70;;;1.50;;
4232;SDS011;2130;48.472;11.934;2023-10-09T07:42:04;5.93;;;1.87;;
4232;SDS011;2130;48.472;11.934;2023-10-09T07:44:47;3.47;;;1.60;;
4232;SDS011;2130;48.472;11.934;2023-10-09T07:47:20;3.43;;;1.47;;
4232;SDS011;2130;48.472;11.934;2023-10-09T07:50:09;4.33;;;1.60;;
4232;SDS011;2130;48.472;11.934;2023-10-09T07:52:38;5.80;;;1.90;;
4232;SDS011;2130;48.472;11.934;2023-10-09T07:55:12;6.20;;;1.50;;
4232;SDS011;2130;48.472;11.934;2023-10-09T07:57:54;4.27;;;1.33;;
4232;SDS011;2130;48.472;11.934;2023-10-09T08:00:23;6.10;;;1.70;;
4232;SDS011;2130;48.472;11.934;2023-10-09T08:03:03;3.37;;;1.40;;
4232;SDS011;2130;48.472;11.934;2023-10-09T08:05:51;3.30;;;1.50;;
4232;SDS011;2130;48.472;11.934;2023-10-09T08:08:33;3.93;;;1.80;;
4232;SDS011;2130;48.472;11.934;2023-10-09T08:11:28;3.80;;;1.30;;
4232;SDS011;2130;48.472;11.934;2023-10-09T08:14:27;2.83;;;1.17;;
4232;SDS011;2130;48.472;11.934;2023-10-09T08:17:14;3.63;;;1.43;;
4232;SDS011;2130;48.472;11.934;2023-10-09T08:19:48;4.20;;;1.23;;
4232;SDS011;2130;48.472;11.934;2023-10-09T08:22:22;11.47;;;1.83;;
4232;SDS011;2130;48.472;11.934;2023-10-09T08:25:10;3.80;;;1.80;;
4232;SDS011;2130;48.472;11.934;2023-10-09T08:27:56;3.67;;;1.60;;
4232;SDS011;2130;48.472;11.934;2023-10-09T08:30:47;3.37;;;1.30;;
4232;SDS011;2130;48.472;11.934;2023-10-09T08:33:17;3.80;;;1.27;;
4232;SDS011;2130;48.472;11.934;2023-10-09T08:36:24;2.57;;;1.17;;
4232;SDS011;2130;48.472;11.934;2023-10-09T08:38:59;4.77;;;1.33;;
4232;SDS011;2130;48.472;11.934;2023-10-09T08:41:41;4.23;;;1.50;;
4232;SDS011;2130;48.472;11.934;2023-10-09T08:44:10;6.87;;;1.23;;
4232;SDS011;2130;48.472;11.934;2023-10-09T08:46:43;2.93;;;1.43;;
4232;SDS011;2130;48.472;11.934;2023-10-09T08:49:12;8.33;;;1.50;;
4232;SDS011;2130;48.472;11.934;2023-10-09T08:51:41;6.83;;;1.70;;
4232;SDS011;2130;48.472;11.934;2023-10-09T08:54:09;4.60;;;1.40;;
4232;SDS011;2130;48.472;11.934;2023-10-09T08:56:41;6.63;;;1.30;;
4232;SDS011;2130;48.472;11.934;2023-10-09T08:59:17;4.60;;;1.57;;
4232;SDS011;2130;48.472;11.934;2023-10-09T09:01:50;4.90;;;1.23;;
4232;SDS011;2130;48.472;11.934;2023-10-09T09:04:35;2.80;;;1.00;;
4232;SDS011;2130;48.472;11.934;2023-10-09T09:07:06;3.27;;;1.00;;
4232;SDS011;2130;48.472;11.934;2023-10-09T09:09:34;4.77;;;1.40;;
4232;SDS011;2130;48.472;11.934;2023-10-09T09:12:03;5.60;;;1.10;;
4232;SDS011;2130;48.472;11.934;2023-10-09T09:14:35;5.33;;;1.20;;
4232;SDS011;2130;48.472;11.934;2023-10-09T09:17:06;3.70;;;1.37;;
4232;SDS011;2130;48.472;11.934;2023-10-09T09:19:38;4.10;;;1.07;;
4232;SDS011;2130;48.472;11.934;2023-10-09T09:22:06;3.50;;;1.00;;
4232;SDS011;2130;48.472;11.934;2023-10-09T09:24:41;5.93;;;1.30;;
4232;SDS011;2130;48.472;11.934;2023-10-09T09:30:22;4.50;;;1.10;;
4232;SDS011;2130;48.472;11.934;2023-10-09T09:32:53;6.27;;;1.53;;
4232;SDS011;2130;48.472;11.934;2023-10-09T09:35:35;4.93;;;1.50;;
4232;SDS011;2130;48.472;11.934;2023-10-09T09:38:04;3.20;;;1.13;;
4232;SDS011;2130;48.472;11.934;2023-10-09T09:40:33;4.23;;;1.30;;
4232;SDS011;2130;48.472;11.934;2023-10-09T09:43:08;7.03;;;1.60;;
4232;SDS011;2130;48.472;11.934;2023-10-09T09:45:48;4.53;;;1.73;;
4232;SDS011;2130;48.472;11.934;2023-10-09T09:48:19;14.57;;;1.37;;
4232;SDS011;2130;48.472;11.934;2023-10-09T09:50:47;3.03;;;1.40;;
4232;SDS011;2130;48.472;11.934;2023-10-09T09:53:20;2.93;;;1.10;;
4232;SDS011;2130;48.472;11.934;2023-10-09T09:55:50;2.67;;;1.07;;
4232;SDS011;2130;48.472;11.934;2023-10-09T09:58:25;4.00;;;1.10;;
4232;SDS011;2130;48.472;11.934;2023-10-09T10:01:00;4.87;;;1.10;;
4232;SDS011;2130;48.472;11.934;2023-10-09T10:03:38;3.90;;;1.33;;
4232;SDS011;2130;48.472;11.934;2023-10-09T10:06:10;4.03;;;1.10;;
4232;SDS011;2130;48.472;11.934;2023-10-09T10:08:40;4.40;;;1.00;;
4232;SDS011;2130;48.472;11.934;2023-10-09T10:11:13;4.93;;;1.10;;
4232;SDS011;2130;48.472;11.934;2023-10-09T10:14:12;4.20;;;1.30;;
4232;SDS011;2130;48.472;11.934;2023-10-09T10:17:04;2.77;;;0.93;;
4232;SDS011;2130;48.472;11.934;2023-10-09T10:20:02;5.10;;;1.10;;
4232;SDS011;2130;48.472;11.934;2023-10-09T10:22:49;3.97;;;1.10;;
4232;SDS011;2130;48.472;11.934;2023-10-09T10:25:33;3.27;;;1.20;;
4232;SDS011;2130;48.472;11.934;2023-10-09T10:28:18;6.00;;;1.40;;
4232;SDS011;2130;48.472;11.934;2023-10-09T10:31:05;3.70;;;1.30;;
4232;SDS011;2130;48.472;11.934;2023-10-09T10:36:39;5.50;;;1.20;;
4232;SDS011;2130;48.472;11.934;2023-10-09T10:39:10;3.50;;;1.50;;
4232;SDS011;2130;48.472;11.934;2023-10-09T10:41:54;3.93;;;1.40;;
4232;SDS011;2130;48.472;11.934;2023-10-09T10:44:26;8.17;;;1.40;;
4232;SDS011;2130;48.472;11.934;2023-10-09T10:47:05;3.97;;;1.10;;
4232;SDS011;2130;48.472;11.934;2023-10-09T10:49:49;3.63;;;1.30;;
4232;SDS011;2130;48.472;11.934;2023-10-09T10:52:26;4.87;;;1.23;;
4232;SDS011;2130;48.472;11.934;2023-10-09T10:55:11;4.57;;;1.20;;
4232;SDS011;2130;48.472;11.934;2023-10-09T10:58:14;6.43;;;1.20;;
4232;SDS011;2130;48.472;11.934;2023-10-09T11:00:53;3.73;;;1.20;;
4232;SDS011;2130;48.472;11.934;2023-10-09T11:03:41;9.10;;;1.30;;
4232;SDS011;2130;48.472;11.934;2023-10-09T11:06:26;4.20;;;1.00;;
4232;SDS011;2130;48.472;11.934;2023-10-09T11:09:05;4.00;;;1.13;;
4232;SDS011;2130;48.472;11.934;2023-10-09T11:11:48;6.23;;;2.00;;
4232;SDS011;2130;48.472;11.934;2023-10-09T11:14:22;4.10;;;1.37;;
4232;SDS011;2130;48.472;11.934;2023-10-09T11:16:51;5.77;;;1.77;;
4232;SDS011;2130;48.472;11.934;2023-10-09T11:19:25;3.20;;;1.17;;
4232;SDS011;2130;48.472;11.934;2023-10-09T11:21:58;3.93;;;1.30;;
4232;SDS011;2130;48.472;11.934;2023-10-09T11:24:43;3.27;;;1.20;;
4232;SDS011;2130;48.472;11.934;2023-10-09T11:27:11;3.83;;;1.23;;
4232;SDS011;2130;48.472;11.934;2023-10-09T11:29:48;3.90;;;0.87;;
4232;SDS011;2130;48.472;11.934;2023-10-09T11:32:32;4.50;;;0.87;;
4232;SDS011;2130;48.472;11.934;2023-10-09T11:35:11;5.07;;;1.37;;
4232;SDS011;2130;48.472;11.934;2023-10-09T11:37:54;6.63;;;1.77;;
4232;SDS011;2130;48.472;11.934;2023-10-09T11:40:30;3.40;;;1.03;;
4232;SDS011;2130;48.472;11.934;2023-10-09T11:43:15;6.23;;;1.30;;
4232;SDS011;2130;48.472;11.934;2023-10-09T11:45:43;4.73;;;1.27;;
4232;SDS011;2130;48.472;11.934;2023-10-09T11:48:22;4.13;;;1.13;;
4232;SDS011;2130;48.472;11.934;2023-10-09T11:50:51;5.97;;;1.10;;
4232;SDS011;2130;48.472;11.934;2023-10-09T11:53:22;3.80;;;1.43;;
4232;SDS011;2130;48.472;11.934;2023-10-09T11:56:03;3.80;;;1.20;;
4232;SDS011;2130;48.472;11.934;2023-10-09T11:58:32;5.60;;;1.50;;
4232;SDS011;2130;48.472;11.934;2023-10-09T12:01:10;4.47;;;1.13;;
4232;SDS011;2130;48.472;11.934;2023-10-09T12:03:44;3.17;;;1.00;;
4232;SDS011;2130;48.472;11.934;2023-10-09T12:06:17;9.20;;;1.50;;
4232;SDS011;2130;48.472;11.934;2023-10-09T12:08:49;6.87;;;1.10;;
4232;SDS011;2130;48.472;11.934;2023-10-09T12:11:19;7.17;;;1.30;;
4232;SDS011;2130;48.472;11.934;2023-10-09T12:13:56;6.53;;;1.20;;
4232;SDS011;2130;48.472;11.934;2023-10-09T12:16:25;3.70;;;1.30;;
4232;SDS011;2130;48.472;11.934;2023-10-09T12:18:55;4.30;;;1.47;;
4232;SDS011;2130;48.472;11.934;2023-10-09T12:21:24;5.20;;;1.33;;
4232;SDS011;2130;48.472;11.934;2023-10-09T12:23:55;5.60;;;1.13;;
4232;SDS011;2130;48.472;11.934;2023-10-09T12:26:29;6.37;;;1.20;;
4232;SDS011;2130;48.472;11.934;2023-10-09T12:29:02;3.17;;;0.90;;
4232;SDS011;2130;48.472;11.934;2023-10-09T12:31:30;5.20;;;1.33;;
4232;SDS011;2130;48.472;11.934;2023-10-09T12:34:01;3.30;;;1.10;;
4232;SDS011;2130;48.472;11.934;2023-10-09T12:36:29;7.50;;;1.40;;
4232;SDS011;2130;48.472;11.934;2023-10-09T12:39:04;3.03;;;1.27;;
4232;SDS011;2130;48.472;11.934;2023-10-09T12:41:35;3.53;;;1.10;;
4232;SDS011;2130;48.472;11.934;2023-10-09T12:44:08;3.60;;;1.20;;
4232;SDS011;2130;48.472;11.934;2023-10-09T12:46:42;4.83;;;1.20;;
4232;SDS011;2130;48.472;11.934;2023-10-09T12:49:19;5.43;;;1.17;;
4232;SDS011;2130;48.472;11.934;2023-10-09T12:51:51;2.93;;;0.83;;
4232;SDS011;2130;48.472;11.934;2023-10-09T12:54:20;4.63;;;1.30;;
4232;SDS011;2130;48.472;11.934;2023-10-09T12:56:55;4.67;;;1.10;;
4232;SDS011;2130;48.472;11.934;2023-10-09T12:59:24;24.00;;;1.33;;
4232;SDS011;2130;48.472;11.934;2023-10-09T13:01:53;8.73;;;1.40;;
4232;SDS011;2130;48.472;11.934;2023-10-09T13:04:25;5.27;;;1.33;;
4232;SDS011;2130;48.472;11.934;2023-10-09T13:06:59;3.83;;;1.20;;
4232;SDS011;2130;48.472;11.934;2023-10-09T13:09:31;3.73;;;1.23;;
4232;SDS011;2130;48.472;11.934;2023-10-09T13:12:04;3.60;;;1.00;;
4232;SDS011;2130;48.472;11.934;2023-10-09T13:14:36;4.00;;;1.30;;
4232;SDS011;2130;48.472;11.934;2023-10-09T13:17:04;3.43;;;1.30;;
4232;SDS011;2130;48.472;11.934;2023-10-09T13:19:37;4.30;;;1.10;;
4232;SDS011;2130;48.472;11.934;2023-10-09T13:22:05;3.33;;;1.20;;
4232;SDS011;2130;48.472;11.934;2023-10-09T13:24:40;5.03;;;1.40;;
4232;SDS011;2130;48.472;11.934;2023-10-09T13:27:10;4.47;;;1.20;;
4232;SDS011;2130;48.472;11.934;2023-10-09T13:29:38;3.83;;;1.20;;
4232;SDS011;2130;48.472;11.934;2023-10-09T13:32:07;6.13;;;1.33;;
4232;SDS011;2130;48.472;11.934;2023-10-09T13:34:40;4.20;;;1.10;;
4232;SDS011;2130;48.472;11.934;2023-10-09T13:37:11;6.40;;;1.67;;
4232;SDS011;2130;48.472;11.934;2023-10-09T13:39:40;3.50;;;1.20;;
4232;SDS011;2130;48.472;11.934;2023-10-09T13:42:20;3.33;;;1.10;;
4232;SDS011;2130;48.472;11.934;2023-10-09T13:44:52;3.50;;;1.40;;
4232;SDS011;2130;48.472;11.934;2023-10-09T13:47:20;6.13;;;1.17;;
4232;SDS011;2130;48.472;11.934;2023-10-09T13:49:54;4.37;;;1.17;;
4232;SDS011;2130;48.472;11.934;2023-10-09T13:52:24;6.27;;;1.33;;
4232;SDS011;2130;48.472;11.934;2023-10-09T13:54:53;3.40;;;1.03;;
4232;SDS011;2130;48.472;11.934;2023-10-09T13:57:23;5.73;;;1.43;;
4232;SDS011;2130;48.472;11.934;2023-10-09T13:59:58;4.70;;;1.23;;
4232;SDS011;2130;48.472;11.934;2023-10-09T14:02:27;4.63;;;1.20;;
4232;SDS011;2130;48.472;11.934;2023-10-09T14:04:56;5.90;;;1.37;;
4232;SDS011;2130;48.472;11.934;2023-10-09T14:07:27;5.10;;;1.40;;
4232;SDS011;2130;48.472;11.934;2023-10-09T14:09:56;3.40;;;1.03;;
4232;SDS011;2130;48.472;11.934;2023-10-09T14:12:35;6.60;;;1.87;;
4232;SDS011;2130;48.472;11.934;2023-10-09T14:15:07;3.77;;;1.30;;
4232;SDS011;2130;48.472;11.934;2023-10-09T14:17:38;5.80;;;1.40;;
4232;SDS011;2130;48.472;11.934;2023-10-09T14:20:10;15.27;;;1.40;;
4232;SDS011;2130;48.472;11.934;2023-10-09T14:23:15;6.80;;;1.10;;
4232;SDS011;2130;48.472;11.934;2023-10-09T14:25:47;3.60;;;1.23;;
4232;SDS011;2130;48.472;11.934;2023-10-09T14:28:17;3.87;;;1.20;;
4232;SDS011;2130;48.472;11.934;2023-10-09T14:30:46;6.87;;;1.10;;
4232;SDS011;2130;48.472;11.934;2023-10-09T14:33:23;7.20;;;1.40;;
4232;SDS011;2130;48.472;11.934;2023-10-09T14:35:52;2.90;;;1.00;;
4232;SDS011;2130;48.472;11.934;2023-10-09T14:38:21;3.10;;;1.03;;
4232;SDS011;2130;48.472;11.934;2023-10-09T14:40:54;6.60;;;1.17;;
4232;SDS011;2130;48.472;11.934;2023-10-09T14:43:26;8.10;;;1.37;;
4232;SDS011;2130;48.472;11.934;2023-10-09T14:46:00;6.40;;;1.50;;
4232;SDS011;2130;48.472;11.934;2023-10-09T14:48:32;4.30;;;1.13;;
4232;SDS011;2130;48.472;11.934;2023-10-09T14:51:04;6.63;;;1.33;;
4232;SDS011;2130;48.472;11.934;2023-10-09T14:53:34;3.30;;;1.10;;
4232;SDS011;2130;48.472;11.934;2023-10-09T14:56:03;4.63;;;1.40;;
4232;SDS011;2130;48.472;11.934;2023-10-09T14:58:36;4.17;;;1.50;;
4232;SDS011;2130;48.472;11.934;2023-10-09T15:01:09;4.50;;;1.67;;
4232;SDS011;2130;48.472;11.934;2023-10-09T15:03:39;5.93;;;1.47;;
4232;SDS011;2130;48.472;11.934;2023-10-09T15:06:08;6.00;;;2.00;;
4232;SDS011;2130;48.472;11.934;2023-10-09T15:08:39;9.13;;;2.00;;
4232;SDS011;2130;48.472;11.934;2023-10-09T15:11:07;4.20;;;1.10;;
4232;SDS011;2130;48.472;11.934;2023-10-09T15:13:35;4.03;;;1.43;;
4232;SDS011;2130;48.472;11.934;2023-10-09T15:16:06;5.90;;;1.73;;
4232;SDS011;2130;48.472;11.934;2023-10-09T15:18:37;5.10;;;1.50;;
4232;SDS011;2130;48.472;11.934;2023-10-09T15:21:06;3.13;;;1.00;;
4232;SDS011;2130;48.472;11.934;2023-10-09T15:23:35;3.80;;;1.20;;
4232;SDS011;2130;48.472;11.934;2023-10-09T15:26:05;3.80;;;1.00;;
4232;SDS011;2130;48.472;11.934;2023-10-09T15:28:34;4.50;;;1.30;;
4232;SDS011;2130;48.472;11.934;2023-10-09T15:31:06;3.73;;;1.60;;
4232;SDS011;2130;48.472;11.934;2023-10-09T15:33:38;5.47;;;1.33;;
4232;SDS011;2130;48.472;11.934;2023-10-09T15:36:10;3.60;;;1.23;;
4232;SDS011;2130;48.472;11.934;2023-10-09T15:38:39;4.53;;;1.30;;
4232;SDS011;2130;48.472;11.934;2023-10-09T15:41:09;3.20;;;1.10;;
4232;SDS011;2130;48.472;11.934;2023-10-09T15:43:38;6.97;;;1.87;;
4232;SDS011;2130;48.472;11.934;2023-10-09T15:46:10;3.20;;;1.07;;
4232;SDS011;2130;48.472;11.934;2023-10-09T15:48:41;7.90;;;1.60;;
4232;SDS011;2130;48.472;11.934;2023-10-09T15:51:11;4.50;;;1.53;;
4232;SDS011;2130;48.472;11.934;2023-10-09T15:53:42;3.20;;;1.13;;
4232;SDS011;2130;48.472;11.934;2023-10-09T15:56:12;3.70;;;1.23;;
4232;SDS011;2130;48.472;11.934;2023-10-09T15:58:41;4.80;;;1.30;;